Time;durP1;ratioP1;P1;durP2;ratioP2;P2;SDS_P1;SDS_P2;PMS_P1;PMS_P2;Temp;Humidity;BMP_temperature;BMP_pressure;BME280_temperature;BME280_humidity;BME280_pressure;Samples;Min_cycle;Max_cycle;Signal;HPM_P1;HPM_P2
2022/06/30 00:00:35;;;;;;;6.47;6.07;;;21.00;1.00;;;;;;6325737;28;20232;-55
2022/06/30 00:03:39;;;;;;;6.50;6.00;;;20.90;1.00;;;;;;6326537;28;20240;-56
2022/06/30 00:06:42;;;;;;;6.07;5.67;;;20.90;1.00;;;;;;6324952;28;20240;-55
2022/06/30 00:09:45;;;;;;;6.50;5.47;;;20.80;1.00;;;;;;6324806;27;20246;-55
2022/06/30 00:12:49;;;;;;;5.23;5.00;;;20.80;1.00;;;;;;6328445;28;20597;-55
2022/06/30 00:15:52;;;;;;;5.20;4.87;;;20.80;1.00;;;;;;6317324;28;20847;-55
2022/06/30 00:18:56;;;;;;;4.93;4.63;;;20.80;1.00;;;;;;6332539;28;20259;-55
2022/06/30 00:21:59;;;;;;;4.50;4.30;;;20.80;1.00;;;;;;6325765;28;20241;-56
2022/06/30 00:25:02;;;;;;;4.80;4.37;;;20.80;1.00;;;;;;6324544;28;20678;-55
2022/06/30 00:28:05;;;;;;;4.50;4.30;;;20.80;1.00;;;;;;6323159;28;20548;-55
2022/06/30 00:31:08;;;;;;;3.93;3.73;;;20.80;1.00;;;;;;6323848;28;20804;-55
2022/06/30 00:34:12;;;;;;;3.90;3.80;;;20.70;1.00;;;;;;6328120;28;20782;-56
2022/06/30 00:37:15;;;;;;;4.17;4.07;;;20.70;1.00;;;;;;6324642;28;20750;-55
2022/06/30 00:40:18;;;;;;;4.83;4.47;;;20.70;1.00;;;;;;6310508;28;20265;-56
2022/06/30 00:43:21;;;;;;;4.43;4.30;;;20.70;1.00;;;;;;6305974;28;20247;-50
2022/06/30 00:46:24;;;;;;;4.60;4.40;;;20.70;1.00;;;;;;6329414;28;20232;-55
2022/06/30 00:49:29;;;;;;;4.80;4.40;;;20.70;1.00;;;;;;6319724;28;20236;-57
2022/06/30 00:52:35;;;;;;;4.40;4.30;;;20.60;1.00;;;;;;6320893;28;20486;-57
2022/06/30 00:55:44;;;;;;;4.70;4.50;;;20.60;1.00;;;;;;6325779;28;20292;-56
2022/06/30 00:58:49;;;;;;;5.00;4.67;;;20.60;1.00;;;;;;6326400;28;20415;-54
2022/06/30 01:01:52;;;;;;;5.97;4.73;;;20.60;1.00;;;;;;6326504;28;20275;-57
2022/06/30 01:04:58;;;;;;;4.93;4.70;;;20.60;1.00;;;;;;6331100;28;20243;-55
2022/06/30 01:08:02;;;;;;;4.87;4.57;;;20.60;1.00;;;;;;6314399;27;20595;-55
2022/06/30 01:14:25;;;;;;;4.90;4.60;;;20.70;1.00;;;;;;6325338;28;20239;-57
2022/06/30 01:17:29;;;;;;;5.63;5.03;;;20.70;1.00;;;;;;6327375;27;20736;-56
2022/06/30 01:20:34;;;;;;;5.70;5.20;;;20.70;1.00;;;;;;6317805;28;20240;-57
2022/06/30 01:23:38;;;;;;;4.83;4.63;;;20.70;1.00;;;;;;6315625;28;20261;-55
2022/06/30 01:26:42;;;;;;;5.87;4.37;;;20.70;1.00;;;;;;6326366;28;20384;-57
2022/06/30 01:29:46;;;;;;;12.57;5.03;;;20.70;1.00;;;;;;6329709;28;20266;-54
2022/06/30 01:32:50;;;;;;;4.90;4.70;;;20.80;1.00;;;;;;6324088;28;20274;-56
2022/06/30 01:35:54;;;;;;;4.87;4.47;;;20.90;1.00;;;;;;6330766;28;20361;-55
2022/06/30 01:39:00;;;;;;;5.43;4.80;;;20.80;1.00;;;;;;6324545;28;20236;-56
2022/06/30 01:42:03;;;;;;;4.73;4.53;;;20.80;1.00;;;;;;6322580;28;20837;-56
2022/06/30 01:45:07;;;;;;;6.90;4.43;;;20.90;1.00;;;;;;6324213;28;20732;-54
2022/06/30 01:48:16;;;;;;;4.97;4.50;;;20.90;1.00;;;;;;6317197;28;20229;-55
2022/06/30 01:51:19;;;;;;;5.33;4.93;;;20.90;1.00;;;;;;6316182;28;20244;-55
2022/06/30 01:54:30;;;;;;;4.37;4.17;;;20.90;1.00;;;;;;6327598;28;20625;-54
2022/06/30 01:57:38;;;;;;;5.60;5.00;;;20.90;1.00;;;;;;6322846;28;20233;-56
2022/06/30 02:00:41;;;;;;;4.60;4.30;;;20.90;1.00;;;;;;6314844;28;20434;-55
2022/06/30 02:03:44;;;;;;;5.50;4.63;;;20.90;1.00;;;;;;6327650;28;20459;-54
2022/06/30 02:06:49;;;;;;;5.00;4.60;;;20.90;1.00;;;;;;6328258;28;20832;-55
2022/06/30 02:09:53;;;;;;;4.67;4.37;;;20.90;1.00;;;;;;6318224;28;20268;-56
2022/06/30 02:12:56;;;;;;;7.37;4.93;;;20.90;1.00;;;;;;6298697;28;20812;-55
2022/06/30 02:15:59;;;;;;;4.93;4.53;;;20.90;1.00;;;;;;6328673;28;20233;-55
2022/06/30 02:19:02;;;;;;;5.00;4.67;;;20.80;1.00;;;;;;6325708;28;20233;-56
2022/06/30 02:22:09;;;;;;;4.93;4.70;;;20.80;1.00;;;;;;6318398;28;21056;-56
2022/06/30 02:25:18;;;;;;;5.43;4.97;;;20.80;1.00;;;;;;6321199;28;20323;-57
2022/06/30 02:28:20;;;;;;;4.30;4.10;;;20.80;1.00;;;;;;6323824;28;20809;-57
2022/06/30 02:31:24;;;;;;;4.80;4.60;;;20.80;1.00;;;;;;6323137;28;20404;-56
2022/06/30 02:34:28;;;;;;;5.20;4.70;;;20.80;1.00;;;;;;6329128;28;20235;-55
2022/06/30 02:37:31;;;;;;;4.87;4.50;;;20.80;1.00;;;;;;6325559;28;20358;-55
2022/06/30 02:40:36;;;;;;;5.53;5.00;;;20.80;1.00;;;;;;6325380;28;20245;-56
2022/06/30 02:43:38;;;;;;;4.63;4.37;;;20.70;1.00;;;;;;6329567;28;20255;-55
2022/06/30 02:46:41;;;;;;;4.60;4.20;;;20.70;1.00;;;;;;6320853;28;20274;-54
2022/06/30 02:49:45;;;;;;;4.80;4.50;;;20.70;1.00;;;;;;6312789;28;20283;-55
2022/06/30 02:52:47;;;;;;;4.43;4.13;;;20.80;1.00;;;;;;6319565;28;20297;-57
2022/06/30 02:55:52;;;;;;;5.07;4.40;;;20.80;1.00;;;;;;6324868;28;20254;-55
2022/06/30 02:58:57;;;;;;;4.43;4.27;;;20.80;1.00;;;;;;6324679;28;20239;-54
2022/06/30 03:02:00;;;;;;;4.50;4.20;;;20.80;1.00;;;;;;6316010;28;20231;-56
2022/06/30 03:05:03;;;;;;;6.13;4.30;;;20.80;1.00;;;;;;6328179;28;20240;-56
2022/06/30 03:08:06;;;;;;;5.30;4.63;;;20.80;1.00;;;;;;6317491;28;20265;-52
2022/06/30 03:11:16;;;;;;;4.50;4.30;;;20.80;1.00;;;;;;6317047;28;20415;-53
2022/06/30 03:14:36;;;;;;;4.90;4.60;;;20.80;1.00;;;;;;6331253;28;20239;-54
2022/06/30 03:17:39;;;;;;;4.83;4.40;;;20.80;1.00;;;;;;6323299;28;20717;-56
2022/06/30 03:20:45;;;;;;;4.47;4.13;;;20.80;1.00;;;;;;6321482;28;20614;-55
2022/06/30 03:23:48;;;;;;;4.30;4.10;;;20.90;1.00;;;;;;6324357;28;20277;-54
2022/06/30 03:26:52;;;;;;;4.70;4.33;;;20.90;1.00;;;;;;6329067;28;20319;-54
2022/06/30 03:29:55;;;;;;;4.60;4.40;;;20.90;1.00;;;;;;6325953;28;20239;-56
2022/06/30 03:32:58;;;;;;;4.53;4.33;;;20.90;1.00;;;;;;6306278;27;20360;-55
2022/06/30 03:36:01;;;;;;;4.43;4.13;;;20.90;1.00;;;;;;6301305;28;20430;-53
2022/06/30 03:39:05;;;;;;;4.20;3.90;;;20.90;1.00;;;;;;6331239;28;20364;-55
2022/06/30 03:42:10;;;;;;;6.03;4.40;;;20.90;1.00;;;;;;6323877;28;20246;-54
2022/06/30 03:45:13;;;;;;;4.80;4.30;;;20.90;1.00;;;;;;6335065;28;20228;-55
2022/06/30 03:48:15;;;;;;;4.13;3.97;;;20.90;1.00;;;;;;6334165;28;20939;-55
2022/06/30 03:51:19;;;;;;;4.47;4.27;;;20.80;1.00;;;;;;6325371;28;20235;-55
2022/06/30 03:54:21;;;;;;;4.63;4.30;;;20.90;1.00;;;;;;6331591;28;20313;-55
2022/06/30 03:57:26;;;;;;;5.90;4.53;;;20.90;1.00;;;;;;6334800;28;20804;-56
2022/06/30 04:00:31;;;;;;;5.60;4.93;;;20.90;1.00;;;;;;6322273;28;20577;-54
2022/06/30 04:03:34;;;;;;;5.30;4.53;;;20.80;1.00;;;;;;6333525;28;20764;-54
2022/06/30 04:06:39;;;;;;;4.70;4.40;;;20.80;1.00;;;;;;6326414;28;20858;-54
2022/06/30 04:09:42;;;;;;;4.80;4.50;;;20.80;1.00;;;;;;6328506;28;20247;-54
2022/06/30 04:12:48;;;;;;;6.17;4.63;;;20.80;1.00;;;;;;6322529;27;20315;-56
2022/06/30 04:15:50;;;;;;;5.27;4.90;;;20.80;1.00;;;;;;6334738;28;20315;-56
2022/06/30 04:18:55;;;;;;;4.80;4.43;;;20.80;1.00;;;;;;6332348;28;20543;-57
2022/06/30 04:21:59;;;;;;;4.90;4.70;;;20.90;1.00;;;;;;6331869;28;20316;-56
2022/06/30 04:25:02;;;;;;;5.47;4.80;;;20.90;1.00;;;;;;6323972;28;20223;-55
2022/06/30 04:28:06;;;;;;;5.30;4.97;;;20.90;1.00;;;;;;6332759;28;20505;-54
2022/06/30 04:34:32;;;;;;;5.37;4.93;;;21.00;1.00;;;;;;6326107;28;20637;-55
2022/06/30 04:37:35;;;;;;;4.87;4.50;;;21.20;1.00;;;;;;6319086;28;20413;-59
2022/06/30 04:44:02;;;;;;;7.37;5.37;;;21.30;1.00;;;;;;6331335;28;20236;-60
2022/06/30 04:47:05;;;;;;;5.17;4.73;;;21.50;1.00;;;;;;6327893;28;20301;-55
2022/06/30 04:50:08;;;;;;;5.50;5.10;;;21.50;1.00;;;;;;6325738;27;20759;-54
2022/06/30 04:53:11;;;;;;;4.47;4.10;;;21.70;1.00;;;;;;6322903;28;20265;-55
2022/06/30 04:56:17;;;;;;;5.77;5.27;;;21.70;1.00;;;;;;6328876;28;20704;-56
2022/06/30 04:59:21;;;;;;;5.70;5.20;;;21.80;1.00;;;;;;6316728;28;20237;-56
2022/06/30 05:02:24;;;;;;;5.43;5.10;;;21.80;1.00;;;;;;6326956;28;20243;-57
2022/06/30 05:05:29;;;;;;;5.83;5.40;;;21.90;1.00;;;;;;6332550;28;20326;-56
2022/06/30 05:08:32;;;;;;;5.73;5.43;;;21.90;1.00;;;;;;6324496;28;20243;-57
2022/06/30 05:11:35;;;;;;;8.43;5.30;;;21.80;1.00;;;;;;6311378;27;20776;-54
2022/06/30 05:14:43;;;;;;;6.57;5.13;;;21.80;1.00;;;;;;6332711;27;20384;-54
2022/06/30 05:17:48;;;;;;;5.93;5.37;;;21.80;1.00;;;;;;6323130;28;20779;-55
2022/06/30 05:20:51;;;;;;;8.07;5.70;;;22.00;1.00;;;;;;6332415;28;20760;-56
2022/06/30 05:27:14;;;;;;;5.80;5.30;;;22.40;1.00;;;;;;6298469;28;20234;-55
2022/06/30 05:30:18;;;;;;;9.50;5.63;;;22.50;1.00;;;;;;6320601;27;20261;-57
2022/06/30 05:33:21;;;;;;;8.03;5.77;;;22.80;1.00;;;;;;6328706;28;20233;-57
2022/06/30 05:36:24;;;;;;;7.63;5.67;;;22.90;1.00;;;;;;6329777;28;20258;-57
2022/06/30 05:39:27;;;;;;;8.17;5.90;;;23.10;1.00;;;;;;6327907;28;20271;-56
2022/06/30 05:42:30;;;;;;;6.90;5.90;;;23.50;1.00;;;;;;6326116;28;20253;-55
2022/06/30 05:45:34;;;;;;;6.17;5.70;;;23.50;1.00;;;;;;6337242;27;20239;-55
2022/06/30 05:48:37;;;;;;;5.47;5.03;;;23.60;1.00;;;;;;6322855;28;20258;-57
2022/06/30 05:51:46;;;;;;;6.30;5.90;;;23.80;1.00;;;;;;6321533;27;20755;-57
2022/06/30 05:54:49;;;;;;;6.13;5.57;;;23.90;1.00;;;;;;6328696;28;20240;-56
2022/06/30 05:57:54;;;;;;;6.67;6.13;;;23.80;1.00;;;;;;6330929;27;20265;-56
2022/06/30 06:00:59;;;;;;;6.40;5.80;;;24.00;1.00;;;;;;6321402;27;20289;-56
2022/06/30 06:04:02;;;;;;;6.50;6.10;;;24.10;1.00;;;;;;6330972;28;20389;-56
2022/06/30 06:07:05;;;;;;;9.30;6.20;;;24.20;1.00;;;;;;6332216;28;20236;-57
2022/06/30 06:10:09;;;;;;;6.27;5.77;;;23.90;1.00;;;;;;6330116;28;20245;-56
2022/06/30 06:13:15;;;;;;;6.57;5.97;;;23.70;1.00;;;;;;6331079;28;20731;-59
2022/06/30 06:16:20;;;;;;;7.50;5.60;;;23.50;1.00;;;;;;6338761;27;20374;-60
2022/06/30 06:19:23;;;;;;;8.30;5.30;;;23.50;1.00;;;;;;6327065;28;20258;-55
2022/06/30 06:22:26;;;;;;;6.53;6.00;;;23.40;1.00;;;;;;6325097;28;20235;-57
2022/06/30 06:25:35;;;;;;;5.73;5.23;;;23.20;1.00;;;;;;6329962;28;20244;-55
2022/06/30 06:32:00;;;;;;;6.40;5.93;;;23.10;1.00;;;;;;6312004;28;20243;-55
2022/06/30 06:35:03;;;;;;;6.37;5.93;;;22.90;1.00;;;;;;6316637;28;20280;-56
2022/06/30 06:38:17;;;;;;;8.23;6.40;;;22.90;1.00;;;;;;6325266;28;20747;-56
2022/06/30 06:41:21;;;;;;;6.27;5.77;;;23.00;1.00;;;;;;6333227;28;20235;-56
2022/06/30 06:44:25;;;;;;;7.77;6.83;;;23.10;1.00;;;;;;6339938;27;20235;-57
2022/06/30 06:47:29;;;;;;;6.60;6.07;;;23.10;1.00;;;;;;6315775;28;20232;-55
2022/06/30 06:50:32;;;;;;;7.47;6.80;;;23.10;1.00;;;;;;6328794;28;20235;-56
2022/06/30 06:53:35;;;;;;;6.97;6.30;;;23.20;1.00;;;;;;6331300;28;20315;-54
2022/06/30 06:56:39;;;;;;;5.80;5.50;;;23.20;1.00;;;;;;6325431;27;20243;-55
2022/06/30 06:59:43;;;;;;;6.30;5.90;;;23.40;1.00;;;;;;6342513;27;20246;-56
2022/06/30 07:02:47;;;;;;;6.80;6.30;;;23.50;1.00;;;;;;6331945;27;20584;-56
2022/06/30 07:05:50;;;;;;;5.80;5.50;;;23.50;1.00;;;;;;6335838;28;20701;-54
2022/06/30 07:08:53;;;;;;;6.90;6.40;;;23.50;1.00;;;;;;6316749;28;20304;-56
2022/06/30 07:11:56;;;;;;;11.13;6.73;;;23.50;1.00;;;;;;6299298;27;20315;-52
2022/06/30 07:14:59;;;;;;;7.93;7.33;;;23.50;1.00;;;;;;6336568;27;20273;-56
2022/06/30 07:18:03;;;;;;;8.17;7.23;;;23.40;1.00;;;;;;6339162;27;20273;-57
2022/06/30 07:21:06;;;;;;;9.03;8.33;;;23.30;1.00;;;;;;6335127;27;20646;-55
2022/06/30 07:24:09;;;;;;;8.33;7.77;;;23.20;1.00;;;;;;6337192;27;20236;-55
2022/06/30 07:27:12;;;;;;;8.70;8.07;;;23.30;1.00;;;;;;6331378;27;20374;-56
2022/06/30 07:30:18;;;;;;;8.23;7.13;;;23.40;1.00;;;;;;6332248;27;20663;-55
2022/06/30 07:33:22;;;;;;;8.07;7.17;;;23.70;1.00;;;;;;6335960;27;20308;-57
2022/06/30 07:36:25;;;;;;;8.60;8.00;;;24.00;1.00;;;;;;6339557;27;20405;-54
2022/06/30 07:39:32;;;;;;;9.07;8.37;;;24.30;1.00;;;;;;6325913;28;20366;-56
2022/06/30 07:42:36;;;;;;;9.17;8.50;;;24.40;1.00;;;;;;6330373;27;20326;-56
2022/06/30 07:45:39;;;;;;;8.00;7.60;;;24.40;1.00;;;;;;6333630;27;20232;-55
2022/06/30 07:48:43;;;;;;;9.17;8.30;;;24.50;1.00;;;;;;6343508;27;20501;-55
2022/06/30 07:51:46;;;;;;;8.27;7.87;;;24.70;1.00;;;;;;6319691;27;20717;-56
2022/06/30 07:54:50;;;;;;;7.50;6.80;;;24.70;1.00;;;;;;6335308;27;20476;-56
2022/06/30 07:57:53;;;;;;;7.63;7.13;;;25.00;1.00;;;;;;6342341;27;20614;-54
2022/06/30 08:00:56;;;;;;;9.80;8.67;;;25.20;1.00;;;;;;6316009;28;20246;-55
2022/06/30 08:04:01;;;;;;;9.80;9.13;;;25.10;1.00;;;;;;6323586;28;20241;-56
2022/06/30 08:07:05;;;;;;;12.83;8.80;;;25.10;1.00;;;;;;6331203;27;20236;-54
2022/06/30 08:10:09;;;;;;;9.40;8.60;;;25.00;1.00;;;;;;6328869;27;20352;-56
2022/06/30 08:13:11;;;;;;;8.93;8.27;;;24.90;1.00;;;;;;6328728;27;20232;-57
2022/06/30 08:16:15;;;;;;;10.30;9.43;;;24.90;1.00;;;;;;6333665;27;20330;-55
2022/06/30 08:19:20;;;;;;;9.70;9.00;;;24.90;1.00;;;;;;6323159;28;20512;-56
2022/06/30 08:22:23;;;;;;;11.57;8.97;;;25.00;1.00;;;;;;6326534;27;20653;-56
2022/06/30 08:25:27;;;;;;;10.50;9.50;;;25.10;1.00;;;;;;6329351;27;20681;-56
2022/06/30 08:28:31;;;;;;;11.23;9.17;;;25.20;1.00;;;;;;6329877;28;20253;-56
2022/06/30 08:31:35;;;;;;;9.10;8.40;;;24.80;1.00;;;;;;6328696;27;20313;-56
2022/06/30 08:34:40;;;;;;;15.50;8.60;;;24.70;1.00;;;;;;6316651;28;20316;-55
2022/06/30 08:37:43;;;;;;;13.00;9.20;;;24.50;1.00;;;;;;6322539;27;20343;-54
2022/06/30 08:44:10;;;;;;;10.27;9.57;;;24.80;1.00;;;;;;6316076;28;20386;-55
2022/06/30 08:47:13;;;;;;;9.53;8.67;;;25.00;1.00;;;;;;6320216;28;20229;-55
2022/06/30 08:50:18;;;;;;;8.93;8.43;;;25.00;1.00;;;;;;6337903;27;20265;-56
2022/06/30 08:53:24;;;;;;;9.07;8.33;;;25.20;1.00;;;;;;6330170;27;20236;-54
2022/06/30 08:56:30;;;;;;;10.80;9.57;;;25.40;1.00;;;;;;6320787;28;20285;-55
2022/06/30 08:59:33;;;;;;;9.17;8.47;;;25.50;1.00;;;;;;6324621;28;20327;-55
2022/06/30 09:02:37;;;;;;;8.73;8.07;;;25.70;1.00;;;;;;6307142;27;20280;-55
2022/06/30 09:05:46;;;;;;;9.30;8.50;;;25.80;1.00;;;;;;6311369;28;20983;-55
2022/06/30 09:08:49;;;;;;;9.40;8.73;;;25.80;1.00;;;;;;6317939;28;20300;-54
2022/06/30 09:11:53;;;;;;;9.33;8.63;;;25.80;1.00;;;;;;6326439;27;20307;-55
2022/06/30 09:14:56;;;;;;;9.03;8.33;;;25.80;1.00;;;;;;6329477;28;20236;-55
2022/06/30 09:18:07;;;;;;;8.43;7.93;;;25.90;1.00;;;;;;6337613;27;20479;-57
2022/06/30 09:21:17;;;;;;;9.30;8.73;;;26.20;1.00;;;;;;6322811;27;20298;-54
2022/06/30 09:24:23;;;;;;;9.73;9.00;;;26.50;1.00;;;;;;6328758;28;20355;-55
2022/06/30 09:27:29;;;;;;;9.03;8.43;;;26.90;1.00;;;;;;6324963;28;20228;-54
2022/06/30 09:30:32;;;;;;;8.97;8.30;;;26.80;1.00;;;;;;6321039;28;20730;-54
2022/06/30 09:33:36;;;;;;;9.43;8.73;;;26.80;1.00;;;;;;6325631;28;20250;-52
2022/06/30 09:36:41;;;;;;;9.27;8.77;;;26.40;1.00;;;;;;6319017;28;20821;-55
2022/06/30 09:39:46;;;;;;;9.50;8.73;;;26.30;1.00;;;;;;6329942;27;20270;-55
2022/06/30 09:42:49;;;;;;;8.90;8.40;;;26.30;1.00;;;;;;6326017;28;20231;-56
2022/06/30 09:45:57;;;;;;;8.90;8.30;;;26.20;1.00;;;;;;6331702;27;20232;-58
2022/06/30 09:49:00;;;;;;;8.43;7.93;;;26.30;1.00;;;;;;6339161;27;20239;-54
2022/06/30 09:52:18;;;;;;;9.33;8.83;;;26.20;1.00;;;;;;6323379;28;20243;-55
2022/06/30 09:55:21;;;;;;;10.27;9.30;;;26.10;1.00;;;;;;6335521;27;20284;-55
2022/06/30 09:58:40;;;;;;;10.33;9.53;;;26.30;1.00;;;;;;6331883;28;20605;-54
2022/06/30 10:01:53;;;;;;;10.27;9.27;;;26.40;1.00;;;;;;6315825;28;20248;-55
2022/06/30 10:04:58;;;;;;;8.50;8.00;;;26.60;1.00;;;;;;6310691;28;20324;-53
2022/06/30 10:08:03;;;;;;;9.10;8.40;;;26.80;1.00;;;;;;6326910;27;20311;-54
2022/06/30 10:11:08;;;;;;;8.57;7.97;;;27.20;1.00;;;;;;6340743;27;20277;-54
2022/06/30 10:14:19;;;;;;;10.57;9.73;;;27.20;1.00;;;;;;6331837;27;20235;-55
2022/06/30 10:17:24;;;;;;;9.27;8.43;;;27.30;1.00;;;;;;6327960;28;20232;-56
2022/06/30 10:20:31;;;;;;;9.83;9.13;;;27.10;1.00;;;;;;6330596;28;20713;-56
2022/06/30 10:23:35;;;;;;;9.93;9.23;;;26.90;1.00;;;;;;6333545;28;20253;-56
2022/06/30 10:30:02;;;;;;;10.73;9.70;;;26.90;1.00;;;;;;6333654;28;20595;-57
2022/06/30 10:33:11;;;;;;;8.87;8.30;;;27.10;1.00;;;;;;6328830;28;20254;-55
2022/06/30 10:36:21;;;;;;;11.03;10.23;;;27.00;1.00;;;;;;6323765;28;20326;-55
2022/06/30 10:39:36;;;;;;;9.30;8.60;;;27.20;1.00;;;;;;6329893;28;20908;-54
2022/06/30 10:42:44;;;;;;;9.03;8.33;;;27.30;1.00;;;;;;6326315;28;20228;-55
2022/06/30 10:46:02;;;;;;;9.37;8.87;;;27.70;1.00;;;;;;6331084;28;20818;-56
2022/06/30 10:49:09;;;;;;;10.07;9.37;;;28.00;1.00;;;;;;6335674;28;20712;-54
2022/06/30 10:52:27;;;;;;;12.00;10.77;;;28.20;1.00;;;;;;6333432;28;20601;-56
2022/06/30 10:55:45;;;;;;;11.43;10.63;;;28.20;1.00;;;;;;6327216;28;20236;-55
2022/06/30 10:59:07;;;;;;;12.20;11.03;;;28.10;1.00;;;;;;6320435;28;20244;-55
2022/06/30 11:02:40;;;;;;;11.30;10.60;;;27.80;1.00;;;;;;6292383;28;20228;-54
2022/06/30 11:05:51;;;;;;;11.67;10.63;;;27.80;1.00;;;;;;6309897;28;20323;-55
2022/06/30 11:08:58;;;;;;;11.87;10.97;;;27.80;1.00;;;;;;6317961;28;20260;-55
2022/06/30 11:12:03;;;;;;;13.07;11.93;;;27.80;1.00;;;;;;6311360;28;20911;-55
2022/06/30 11:15:06;;;;;;;11.20;10.33;;;27.50;1.00;;;;;;6310072;28;20362;-55
2022/06/30 11:18:10;;;;;;;10.53;9.73;;;27.40;1.00;;;;;;6302845;28;20236;-55
2022/06/30 11:21:13;;;;;;;11.83;10.87;;;27.30;1.00;;;;;;6309126;28;20228;-55
2022/06/30 11:24:21;;;;;;;11.57;10.60;;;27.50;1.00;;;;;;6314802;28;20620;-54
2022/06/30 11:27:28;;;;;;;12.00;10.80;;;27.60;1.00;;;;;;6321283;28;20685;-54
2022/06/30 11:30:33;;;;;;;11.77;10.70;;;27.70;1.00;;;;;;6331561;28;20280;-57
2022/06/30 11:33:51;;;;;;;11.07;9.97;;;27.90;1.00;;;;;;6334429;27;20804;-55
2022/06/30 11:36:54;;;;;;;11.67;10.33;;;28.10;1.00;;;;;;6331970;27;20296;-54
2022/06/30 11:39:58;;;;;;;10.50;9.70;;;28.30;1.00;;;;;;6331658;28;20723;-55
2022/06/30 11:43:19;;;;;;;10.63;9.87;;;28.40;1.00;;;;;;6333794;27;20334;-56
2022/06/30 11:46:28;;;;;;;11.67;10.57;;;28.40;1.00;;;;;;6332913;27;21091;-54
2022/06/30 11:49:41;;;;;;;12.73;11.77;;;28.50;1.00;;;;;;6332682;27;20326;-56
2022/06/30 11:52:44;;;;;;;12.03;10.87;;;28.20;1.00;;;;;;6325247;28;20232;-53
2022/06/30 11:55:47;;;;;;;10.80;9.90;;;28.30;1.00;;;;;;6347114;27;20266;-55
2022/06/30 11:59:06;;;;;;;9.97;9.30;;;28.20;1.00;;;;;;6335465;27;20272;-55
2022/06/30 12:02:09;;;;;;;12.30;11.10;;;28.30;1.00;;;;;;6328019;27;20836;-56
2022/06/30 12:05:14;;;;;;;12.67;11.63;;;28.40;1.00;;;;;;6308583;27;20232;-56
2022/06/30 12:08:17;;;;;;;12.50;11.57;;;28.40;1.00;;;;;;6294274;28;20244;-56
2022/06/30 12:11:20;;;;;;;12.50;11.50;;;28.40;1.00;;;;;;6328324;27;20335;-54
2022/06/30 12:14:25;;;;;;;12.13;11.27;;;28.20;1.00;;;;;;6327532;27;20267;-53
2022/06/30 12:17:31;;;;;;;11.90;11.07;;;28.20;1.00;;;;;;6318523;28;20239;-56
2022/06/30 12:20:34;;;;;;;13.43;11.57;;;28.00;1.00;;;;;;6329144;28;20592;-54
2022/06/30 12:23:39;;;;;;;12.30;11.20;;;28.00;1.00;;;;;;6323518;28;20606;-56
2022/06/30 12:26:49;;;;;;;11.30;10.30;;;28.10;1.00;;;;;;6325164;28;20559;-55
2022/06/30 12:29:58;;;;;;;12.03;10.93;;;28.30;1.00;;;;;;6324744;28;20262;-55
2022/06/30 12:33:03;;;;;;;13.13;12.00;;;28.40;1.00;;;;;;6325943;28;20245;-55
2022/06/30 12:36:06;;;;;;;11.43;10.40;;;28.30;1.00;;;;;;6311318;28;20304;-54
2022/06/30 12:39:14;;;;;;;11.30;10.50;;;28.20;1.00;;;;;;6313062;28;20232;-54
2022/06/30 12:42:18;;;;;;;11.37;10.37;;;28.20;1.00;;;;;;6331096;28;20320;-50
2022/06/30 12:45:53;;;;;;;11.63;10.73;;;28.40;1.00;;;;;;6310963;28;20375;-54
2022/06/30 12:48:58;;;;;;;11.60;10.60;;;28.40;1.00;;;;;;6327483;27;20236;-55
2022/06/30 12:52:12;;;;;;;10.87;9.87;;;28.40;1.00;;;;;;6329595;28;21046;-54
2022/06/30 12:55:18;;;;;;;11.10;10.40;;;28.40;1.00;;;;;;6297918;28;20679;-55
2022/06/30 12:58:21;;;;;;;10.23;9.53;;;28.40;1.00;;;;;;6309934;28;20243;-54
2022/06/30 13:01:28;;;;;;;11.17;10.07;;;28.30;1.00;;;;;;6318061;28;20336;-54
2022/06/30 13:04:33;;;;;;;12.97;10.23;;;28.40;1.00;;;;;;6322388;28;20478;-55
2022/06/30 13:07:36;;;;;;;10.37;9.73;;;28.50;1.00;;;;;;6321344;28;20347;-54
2022/06/30 13:14:11;;;;;;;11.23;10.30;;;28.40;1.00;;;;;;6245723;28;20355;-55
2022/06/30 13:17:15;;;;;;;11.40;10.50;;;28.30;1.00;;;;;;6322413;28;20251;-55
2022/06/30 13:20:18;;;;;;;11.07;10.27;;;28.40;1.00;;;;;;6319127;28;20238;-54
2022/06/30 13:23:21;;;;;;;10.70;10.10;;;28.50;1.00;;;;;;6316328;28;20232;-55
2022/06/30 13:26:24;;;;;;;10.00;9.30;;;28.50;1.00;;;;;;6322358;28;20362;-55
2022/06/30 13:29:27;;;;;;;10.77;9.83;;;28.60;1.00;;;;;;6320921;28;20264;-54
2022/06/30 13:32:31;;;;;;;9.83;9.10;;;28.60;1.00;;;;;;6331149;27;20235;-55
2022/06/30 13:35:36;;;;;;;10.67;9.77;;;28.70;1.00;;;;;;6318668;28;20292;-55
2022/06/30 13:38:39;;;;;;;11.60;10.32;;;28.60;1.00;;;;;;6316559;28;20607;-55
2022/06/30 13:41:42;;;;;;;11.17;10.20;;;28.60;1.00;;;;;;6320898;28;20761;-56
2022/06/30 13:44:45;;;;;;;9.93;9.07;;;28.70;1.00;;;;;;6323950;28;20232;-55
2022/06/30 13:47:56;;;;;;;10.10;9.10;;;28.80;1.00;;;;;;6319956;28;20298;-54
2022/06/30 13:50:59;;;;;;;11.30;10.40;;;28.90;1.00;;;;;;6320859;28;20240;-55
2022/06/30 13:54:02;;;;;;;11.23;10.43;;;29.10;1.00;;;;;;6324329;28;20232;-55
2022/06/30 13:57:07;;;;;;;11.53;10.23;;;28.90;1.00;;;;;;6320263;28;20266;-55
2022/06/30 14:00:11;;;;;;;11.85;10.75;;;28.80;1.00;;;;;;6301425;28;20309;-54
2022/06/30 14:03:20;;;;;;;13.45;10.40;;;28.80;1.00;;;;;;6323248;28;20239;-54
2022/06/30 14:06:23;;;;;;;11.15;10.45;;;28.80;1.00;;;;;;6324992;28;20727;-55
2022/06/30 14:09:26;;;;;;;13.65;12.40;;;29.10;1.00;;;;;;6319431;28;20338;-55
2022/06/30 14:12:35;;;;;;;12.57;11.38;;;29.30;1.00;;;;;;6325799;28;20619;-55
2022/06/30 14:15:38;;;;;;;12.13;11.00;;;29.20;1.00;;;;;;6315656;28;20526;-56
2022/06/30 14:18:42;;;;;;;11.52;10.63;;;29.10;1.00;;;;;;6314197;28;20235;-56
2022/06/30 14:21:45;;;;;;;11.90;11.10;;;29.00;1.00;;;;;;6326668;28;20281;-55
2022/06/30 14:24:48;;;;;;;12.38;11.35;;;28.80;1.00;;;;;;6324702;28;20259;-54
2022/06/30 14:27:51;;;;;;;13.75;12.68;;;28.80;1.00;;;;;;6323459;28;20327;-54
2022/06/30 14:30:57;;;;;;;13.68;12.60;;;28.80;1.00;;;;;;6319521;28;20320;-54
2022/06/30 14:34:01;;;;;;;11.93;11.07;;;28.70;1.00;;;;;;6328192;28;20290;-57
2022/06/30 14:37:06;;;;;;;12.00;11.20;;;28.70;1.00;;;;;;6323804;28;20755;-58
2022/06/30 14:40:10;;;;;;;12.30;11.50;;;28.60;1.00;;;;;;6321524;28;20237;-56
2022/06/30 14:43:14;;;;;;;11.13;10.40;;;28.80;1.00;;;;;;6322704;28;20236;-57
2022/06/30 14:46:17;;;;;;;10.63;9.93;;;29.00;1.00;;;;;;6322319;28;20228;-55
2022/06/30 14:49:22;;;;;;;12.65;11.75;;;29.00;1.00;;;;;;6317209;28;20240;-55
2022/06/30 14:52:34;;;;;;;10.70;10.00;;;29.20;1.00;;;;;;6326996;28;20228;-55
2022/06/30 14:55:38;;;;;;;12.60;11.90;;;29.30;1.00;;;;;;6316789;28;20310;-54
2022/06/30 14:58:41;;;;;;;13.07;12.27;;;29.50;1.00;;;;;;6318634;28;20243;-55
2022/06/30 15:01:44;;;;;;;12.20;11.48;;;29.50;1.00;;;;;;6321831;28;20735;-57
2022/06/30 15:04:49;;;;;;;11.98;11.10;;;29.50;1.00;;;;;;6327750;28;20244;-56
2022/06/30 15:07:53;;;;;;;12.75;11.75;;;29.60;1.00;;;;;;6320806;28;20248;-54
2022/06/30 15:10:56;;;;;;;13.07;12.07;;;29.60;1.00;;;;;;6334813;28;20338;-54
2022/06/30 15:13:59;;;;;;;13.07;11.98;;;29.50;1.00;;;;;;6326095;28;20235;-55
2022/06/30 15:17:02;;;;;;;13.38;12.10;;;29.50;1.00;;;;;;6332398;28;20685;-55
2022/06/30 15:20:08;;;;;;;12.65;11.70;;;29.70;1.00;;;;;;6332906;28;20319;-56
2022/06/30 15:26:32;;;;;;;12.77;11.88;;;29.80;1.00;;;;;;6322235;28;20320;-55
2022/06/30 15:29:35;;;;;;;12.35;11.35;;;29.70;1.00;;;;;;6330570;28;20720;-55
2022/06/30 15:32:37;;;;;;;12.70;11.80;;;29.60;1.00;;;;;;6322531;28;20244;-55
2022/06/30 15:35:42;;;;;;;12.80;11.98;;;29.70;1.00;;;;;;6328180;28;20589;-55
2022/06/30 15:38:45;;;;;;;12.57;11.73;;;29.50;1.00;;;;;;6316195;28;20288;-55
2022/06/30 15:41:48;;;;;;;12.43;11.63;;;29.60;1.00;;;;;;6328675;28;20234;-55
2022/06/30 15:44:54;;;;;;;13.30;12.40;;;29.70;1.00;;;;;;6320425;28;20239;-55
2022/06/30 15:48:03;;;;;;;13.48;12.48;;;29.70;1.00;;;;;;6307441;28;20316;-54
2022/06/30 15:51:08;;;;;;;13.98;13.07;;;29.70;1.00;;;;;;6326825;28;20247;-55
2022/06/30 15:54:12;;;;;;;12.95;11.80;;;29.70;1.00;;;;;;6330240;28;20232;-56
2022/06/30 15:57:15;;;;;;;11.48;10.50;;;29.60;1.00;;;;;;6324616;28;20232;-54
2022/06/30 16:00:20;;;;;;;11.82;11.05;;;29.70;1.00;;;;;;6329057;28;20253;-56
2022/06/30 16:03:23;;;;;;;12.75;11.95;;;29.50;1.00;;;;;;6331593;28;20539;-55
2022/06/30 16:06:27;;;;;;;12.18;11.18;;;29.50;1.00;;;;;;6329146;28;20314;-55
2022/06/30 16:09:30;;;;;;;12.93;12.02;;;29.60;1.00;;;;;;6325390;28;20311;-56
2022/06/30 16:12:35;;;;;;;12.00;11.23;;;29.60;1.00;;;;;;6325453;28;20267;-55
2022/06/30 16:15:38;;;;;;;13.07;12.27;;;29.60;1.00;;;;;;6332386;28;20834;-55
2022/06/30 16:18:41;;;;;;;11.83;11.13;;;29.50;1.00;;;;;;6326885;27;20636;-55
2022/06/30 16:21:45;;;;;;;11.37;10.67;;;29.50;1.00;;;;;;6320757;28;20373;-55
2022/06/30 16:24:49;;;;;;;11.85;11.05;;;29.50;1.00;;;;;;6329157;28;20394;-55
2022/06/30 16:27:52;;;;;;;12.68;11.77;;;29.50;1.00;;;;;;6325182;28;20236;-55
2022/06/30 16:30:54;;;;;;;13.93;12.60;;;29.40;1.00;;;;;;6327359;28;20270;-55
2022/06/30 16:33:57;;;;;;;12.73;11.82;;;29.40;1.00;;;;;;6332012;28;20232;-54
2022/06/30 16:37:02;;;;;;;12.50;11.40;;;29.30;1.00;;;;;;6318914;28;20741;-54